Time;durP1;ratioP1;P1;durP2;ratioP2;P2;SDS_P1;SDS_P2;PMS_P1;PMS_P2;Temp;Humidity;BMP_temperature;BMP_pressure;BME280_temperature;BME280_humidity;BME280_pressure;Samples;Min_cycle;Max_cycle;Signal;HPM_P1;HPM_P2
2021/08/24 00:01:41;;;;;;;;;;;22.30;56.70;;;;;;491646;240;1280;-72
2021/08/24 00:03:42;;;;;;;;;;;22.30;56.70;;;;;;491697;240;1049;-72
2021/08/24 00:05:43;;;;;;;;;;;22.20;56.80;;;;;;491548;240;1032;-72
2021/08/24 00:07:45;;;;;;;;;;;22.20;56.90;;;;;;491585;240;1025;-72
2021/08/24 00:09:46;;;;;;;;;;;22.20;57.20;;;;;;491620;240;1046;-72
2021/08/24 00:11:48;;;;;;;;;;;22.10;57.10;;;;;;491523;240;1129;-72
2021/08/24 00:13:49;;;;;;;;;;;22.20;57.00;;;;;;491615;240;2175;-72
2021/08/24 00:15:50;;;;;;;;;;;22.10;57.10;;;;;;491678;240;1041;-72
2021/08/24 00:17:52;;;;;;;;;;;22.20;57.10;;;;;;491677;240;1154;-72
2021/08/24 00:19:53;;;;;;;;;;;22.10;57.00;;;;;;491618;240;1157;-72
2021/08/24 00:21:54;;;;;;;;;;;22.10;57.10;;;;;;491585;240;1311;-72
2021/08/24 00:23:56;;;;;;;;;;;22.20;57.10;;;;;;491681;240;1041;-72
2021/08/24 00:25:57;;;;;;;;;;;22.10;57.10;;;;;;491685;240;1126;-72
2021/08/24 00:27:58;;;;;;;;;;;22.10;57.10;;;;;;491648;240;1141;-72
2021/08/24 00:30:00;;;;;;;;;;;22.10;57.00;;;;;;491649;240;972;-72
2021/08/24 00:32:01;;;;;;;;;;;22.40;56.40;;;;;;491616;240;1221;-72
2021/08/24 00:34:02;;;;;;;;;;;22.30;56.40;;;;;;491640;240;2187;-72
2021/08/24 00:36:04;;;;;;;;;;;22.20;56.60;;;;;;491640;240;1234;-72
2021/08/24 00:38:05;;;;;;;;;;;22.20;56.80;;;;;;491645;240;1075;-72
2021/08/24 00:40:06;;;;;;;;;;;22.30;56.70;;;;;;491666;240;1010;-72
2021/08/24 00:42:08;;;;;;;;;;;22.30;56.50;;;;;;491622;240;1155;-72
2021/08/24 00:44:09;;;;;;;;;;;22.30;56.50;;;;;;491667;240;1011;-72
2021/08/24 00:46:10;;;;;;;;;;;22.20;56.70;;;;;;491631;240;1113;-72
2021/08/24 00:48:12;;;;;;;;;;;22.20;56.80;;;;;;491626;240;1124;-72
2021/08/24 00:50:13;;;;;;;;;;;22.20;56.70;;;;;;491773;240;962;-72
2021/08/24 00:52:14;;;;;;;;;;;22.40;56.30;;;;;;491555;240;1180;-73
2021/08/24 00:54:16;;;;;;;;;;;22.30;56.30;;;;;;491620;240;2188;-72
2021/08/24 00:56:17;;;;;;;;;;;22.40;56.30;;;;;;491599;240;1113;-72
2021/08/24 00:58:18;;;;;;;;;;;22.30;56.40;;;;;;491707;240;1079;-72
2021/08/24 01:00:20;;;;;;;;;;;22.40;56.40;;;;;;491648;240;996;-72
2021/08/24 01:02:21;;;;;;;;;;;22.30;56.50;;;;;;491507;240;1179;-72
2021/08/24 01:04:22;;;;;;;;;;;22.30;56.50;;;;;;491648;240;1036;-72
2021/08/24 01:06:24;;;;;;;;;;;22.30;56.50;;;;;;491613;240;1196;-72
2021/08/24 01:08:25;;;;;;;;;;;22.30;56.40;;;;;;491710;240;981;-72
2021/08/24 01:10:27;;;;;;;;;;;22.20;56.50;;;;;;491600;240;1061;-72
2021/08/24 01:12:28;;;;;;;;;;;22.20;56.60;;;;;;491529;240;1156;-72
2021/08/24 01:14:29;;;;;;;;;;;22.60;55.60;;;;;;491582;240;2199;-72
2021/08/24 01:16:31;;;;;;;;;;;22.40;55.80;;;;;;491548;240;1318;-72
2021/08/24 01:18:32;;;;;;;;;;;22.60;55.60;;;;;;491670;240;1171;-72
2021/08/24 01:20:33;;;;;;;;;;;22.30;56.10;;;;;;491644;240;1124;-72
2021/08/24 01:22:35;;;;;;;;;;;22.50;56.00;;;;;;491569;240;1076;-72
2021/08/24 01:24:36;;;;;;;;;;;22.40;55.80;;;;;;491661;240;997;-72
2021/08/24 01:26:37;;;;;;;;;;;22.60;55.50;;;;;;491679;240;1142;-72
2021/08/24 01:28:39;;;;;;;;;;;22.40;56.00;;;;;;491642;240;1120;-72
2021/08/24 01:30:42;;;;;;;;;;;22.40;56.10;;;;;;491692;240;1084;-72
2021/08/24 01:32:43;;;;;;;;;;;22.50;55.80;;;;;;491719;240;1452;-72
2021/08/24 01:34:43;;;;;;;;;;;22.90;55.10;;;;;;491708;240;2157;-72
2021/08/24 01:36:44;;;;;;;;;;;23.50;53.40;;;;;;491613;240;1228;-73
2021/08/24 01:38:45;;;;;;;;;;;23.90;52.40;;;;;;491660;240;1049;-72
2021/08/24 01:40:47;;;;;;;;;;;24.10;51.90;;;;;;491576;240;1067;-72
2021/08/24 01:42:48;;;;;;;;;;;24.20;51.40;;;;;;491575;240;1139;-72
2021/08/24 01:44:49;;;;;;;;;;;24.30;51.20;;;;;;491690;240;1065;-72
2021/08/24 01:46:51;;;;;;;;;;;24.30;51.10;;;;;;491667;240;1092;-72
2021/08/24 01:48:52;;;;;;;;;;;24.30;50.80;;;;;;491632;240;1143;-72
2021/08/24 01:50:53;;;;;;;;;;;24.40;50.80;;;;;;491582;240;1126;-72
2021/08/24 01:52:55;;;;;;;;;;;24.30;50.80;;;;;;491575;240;1165;-72
2021/08/24 01:54:56;;;;;;;;;;;24.40;50.90;;;;;;491613;240;2240;-72
2021/08/24 01:56:58;;;;;;;;;;;24.40;50.70;;;;;;491553;240;1182;-72
2021/08/24 01:58:59;;;;;;;;;;;24.40;50.60;;;;;;491648;240;1053;-72
2021/08/24 02:01:00;;;;;;;;;;;24.40;50.70;;;;;;491616;240;1192;-72
2021/08/24 02:03:01;;;;;;;;;;;24.50;50.60;;;;;;491617;240;1180;-72
2021/08/24 02:05:03;;;;;;;;;;;24.50;50.40;;;;;;491737;240;980;-72
2021/08/24 02:07:04;;;;;;;;;;;24.50;50.30;;;;;;491584;240;1141;-72
2021/08/24 02:09:06;;;;;;;;;;;24.50;50.30;;;;;;491658;240;1035;-72
2021/08/24 02:11:07;;;;;;;;;;;24.50;50.40;;;;;;491588;240;1119;-72
2021/08/24 02:13:08;;;;;;;;;;;24.50;50.40;;;;;;491636;240;1108;-72
2021/08/24 02:15:10;;;;;;;;;;;24.50;50.20;;;;;;491673;240;2187;-72
2021/08/24 02:17:11;;;;;;;;;;;24.60;50.20;;;;;;491550;240;1226;-72
2021/08/24 02:19:12;;;;;;;;;;;24.60;50.00;;;;;;491677;240;1147;-72
2021/08/24 02:21:14;;;;;;;;;;;24.60;50.20;;;;;;491640;240;1501;-72
2021/08/24 02:23:15;;;;;;;;;;;24.50;50.20;;;;;;491637;240;1004;-72
2021/08/24 02:25:16;;;;;;;;;;;24.60;50.10;;;;;;491751;240;961;-72
2021/08/24 02:27:18;;;;;;;;;;;24.60;50.10;;;;;;491541;240;1245;-72
2021/08/24 02:29:19;;;;;;;;;;;24.60;50.10;;;;;;491666;240;1049;-72
2021/08/24 02:31:21;;;;;;;;;;;24.50;50.10;;;;;;491672;240;1125;-72
2021/08/24 02:33:22;;;;;;;;;;;24.50;50.30;;;;;;491590;240;1412;-72
2021/08/24 02:35:23;;;;;;;;;;;24.40;50.40;;;;;;491621;240;2268;-72
2021/08/24 02:37:24;;;;;;;;;;;24.50;50.20;;;;;;491564;240;1193;-72
2021/08/24 02:39:26;;;;;;;;;;;24.50;50.10;;;;;;491696;240;1001;-72
2021/08/24 02:41:27;;;;;;;;;;;24.60;50.00;;;;;;491635;240;1137;-72
2021/08/24 02:43:29;;;;;;;;;;;24.60;50.10;;;;;;491646;240;1317;-73
2021/08/24 02:45:30;;;;;;;;;;;24.30;50.70;;;;;;491669;240;1143;-72
2021/08/24 02:47:31;;;;;;;;;;;24.40;50.50;;;;;;491583;240;1175;-72
2021/08/24 02:49:33;;;;;;;;;;;24.40;50.40;;;;;;491684;240;1171;-72
2021/08/24 02:51:34;;;;;;;;;;;24.50;50.20;;;;;;491575;240;1188;-72
2021/08/24 02:53:35;;;;;;;;;;;24.50;50.10;;;;;;491671;240;1055;-72
2021/08/24 02:55:37;;;;;;;;;;;24.60;50.10;;;;;;491684;240;2204;-72
2021/08/24 02:57:38;;;;;;;;;;;24.50;49.90;;;;;;491647;240;1090;-72
2021/08/24 02:59:39;;;;;;;;;;;24.60;49.90;;;;;;491794;240;1055;-72
2021/08/24 03:01:41;;;;;;;;;;;24.50;50.10;;;;;;491667;240;1319;-72
2021/08/24 03:03:42;;;;;;;;;;;24.50;50.10;;;;;;491651;240;1121;-72
2021/08/24 03:05:43;;;;;;;;;;;24.50;50.10;;;;;;491639;240;1261;-72
2021/08/24 03:07:45;;;;;;;;;;;24.50;50.20;;;;;;491566;240;1135;-72
2021/08/24 03:09:46;;;;;;;;;;;24.50;50.10;;;;;;491592;240;1041;-73
2021/08/24 03:11:47;;;;;;;;;;;24.40;50.10;;;;;;491648;240;1208;-72
2021/08/24 03:13:49;;;;;;;;;;;24.50;49.90;;;;;;491620;240;1252;-72
2021/08/24 03:15:50;;;;;;;;;;;24.50;50.10;;;;;;491669;240;2188;-72
2021/08/24 03:17:51;;;;;;;;;;;24.40;50.10;;;;;;491614;240;1120;-72
2021/08/24 03:19:53;;;;;;;;;;;24.50;50.10;;;;;;491800;240;1171;-72
2021/08/24 03:21:54;;;;;;;;;;;24.60;49.80;;;;;;491519;240;1373;-72
2021/08/24 03:23:55;;;;;;;;;;;24.60;49.70;;;;;;491571;240;1070;-72
2021/08/24 03:25:57;;;;;;;;;;;24.60;49.60;;;;;;491650;240;1053;-72
2021/08/24 03:27:58;;;;;;;;;;;24.60;49.70;;;;;;491624;240;1403;-72
2021/08/24 03:29:59;;;;;;;;;;;24.50;49.70;;;;;;491646;240;1118;-72
2021/08/24 03:32:01;;;;;;;;;;;24.50;50.10;;;;;;491593;240;1227;-72
2021/08/24 03:34:02;;;;;;;;;;;24.40;49.90;;;;;;491605;240;1144;-72
2021/08/24 03:36:03;;;;;;;;;;;24.60;49.70;;;;;;491790;240;2145;-72
2021/08/24 03:38:05;;;;;;;;;;;24.30;50.10;;;;;;491634;240;1141;-73
2021/08/24 03:40:07;;;;;;;;;;;24.40;49.90;;;;;;491768;240;1068;-72
2021/08/24 03:42:07;;;;;;;;;;;24.00;51.00;;;;;;491528;240;1510;-72
2021/08/24 03:44:09;;;;;;;;;;;23.50;51.10;;;;;;491619;240;1348;-72
2021/08/24 03:46:10;;;;;;;;;;;22.80;53.50;;;;;;491618;240;1370;-72
2021/08/24 03:48:11;;;;;;;;;;;22.30;54.60;;;;;;491658;240;966;-72
2021/08/24 03:50:13;;;;;;;;;;;22.00;55.80;;;;;;491616;240;1190;-72
2021/08/24 03:52:14;;;;;;;;;;;21.90;56.10;;;;;;491569;240;1292;-72
2021/08/24 03:54:15;;;;;;;;;;;21.80;56.40;;;;;;491633;240;1067;-72
2021/08/24 03:56:17;;;;;;;;;;;21.60;56.80;;;;;;491619;240;2140;-72
2021/08/24 03:58:18;;;;;;;;;;;21.60;57.00;;;;;;491645;240;1084;-73
2021/08/24 04:00:19;;;;;;;;;;;21.40;57.30;;;;;;491742;240;1053;-72
2021/08/24 04:02:21;;;;;;;;;;;21.30;57.60;;;;;;491614;240;1081;-72
2021/08/24 04:04:22;;;;;;;;;;;21.30;57.80;;;;;;491632;240;1237;-72
2021/08/24 04:06:23;;;;;;;;;;;21.10;58.00;;;;;;491571;240;1221;-72
2021/08/24 04:08:25;;;;;;;;;;;21.20;58.00;;;;;;491706;240;1056;-72
2021/08/24 04:10:26;;;;;;;;;;;21.20;58.10;;;;;;491644;240;1187;-72
2021/08/24 04:12:28;;;;;;;;;;;21.30;58.00;;;;;;491580;240;1209;-72
2021/08/24 04:14:29;;;;;;;;;;;21.20;57.90;;;;;;491556;240;1061;-72
2021/08/24 04:16:30;;;;;;;;;;;21.30;57.90;;;;;;491706;240;2144;-72
2021/08/24 04:18:32;;;;;;;;;;;21.20;57.90;;;;;;491590;240;1135;-72
2021/08/24 04:20:33;;;;;;;;;;;21.20;58.00;;;;;;491715;240;1212;-72
2021/08/24 04:22:34;;;;;;;;;;;21.20;58.00;;;;;;491528;240;1205;-72
2021/08/24 04:24:36;;;;;;;;;;;21.10;58.10;;;;;;491519;240;1070;-72
2021/08/24 04:26:37;;;;;;;;;;;21.10;58.20;;;;;;491624;240;1103;-72
2021/08/24 04:28:38;;;;;;;;;;;21.10;58.30;;;;;;491576;240;985;-72
2021/08/24 04:30:39;;;;;;;;;;;21.00;58.40;;;;;;491607;240;1046;-72
2021/08/24 04:32:41;;;;;;;;;;;21.00;58.40;;;;;;491498;240;1206;-72
2021/08/24 04:34:42;;;;;;;;;;;21.00;58.50;;;;;;491630;240;1305;-72
2021/08/24 04:36:43;;;;;;;;;;;20.90;58.70;;;;;;491555;240;2196;-72
2021/08/24 04:38:45;;;;;;;;;;;20.90;58.60;;;;;;491608;240;971;-72
2021/08/24 04:40:46;;;;;;;;;;;20.90;58.70;;;;;;491573;240;1049;-72
2021/08/24 04:42:47;;;;;;;;;;;20.90;58.70;;;;;;491561;240;1142;-72
2021/08/24 04:44:49;;;;;;;;;;;20.90;58.70;;;;;;491526;240;1086;-72
2021/08/24 04:46:50;;;;;;;;;;;20.90;58.80;;;;;;491487;240;1102;-72
2021/08/24 04:48:51;;;;;;;;;;;20.80;58.80;;;;;;491473;240;1053;-72
2021/08/24 04:50:53;;;;;;;;;;;20.80;58.90;;;;;;491486;240;1247;-72
2021/08/24 04:52:54;;;;;;;;;;;20.70;58.90;;;;;;491346;240;1331;-72
2021/08/24 04:54:55;;;;;;;;;;;20.80;59.00;;;;;;491354;240;1099;-72
2021/08/24 04:56:57;;;;;;;;;;;20.70;58.90;;;;;;491305;240;2197;-72
2021/08/24 04:58:58;;;;;;;;;;;20.70;59.00;;;;;;491351;240;1063;-72
2021/08/24 05:00:59;;;;;;;;;;;20.70;59.10;;;;;;491362;240;1012;-72
2021/08/24 05:03:01;;;;;;;;;;;20.60;59.10;;;;;;491405;240;1024;-72
2021/08/24 05:05:02;;;;;;;;;;;20.60;59.20;;;;;;491478;240;1253;-72
2021/08/24 05:07:03;;;;;;;;;;;20.60;59.20;;;;;;491442;240;1068;-72
2021/08/24 05:09:05;;;;;;;;;;;20.60;59.20;;;;;;491489;240;1069;-72
2021/08/24 05:11:06;;;;;;;;;;;20.60;59.30;;;;;;491409;240;1051;-72
2021/08/24 05:13:07;;;;;;;;;;;20.60;59.20;;;;;;491438;240;1026;-72
2021/08/24 05:15:09;;;;;;;;;;;20.70;59.10;;;;;;491399;240;1123;-72
2021/08/24 05:17:10;;;;;;;;;;;20.60;59.20;;;;;;491334;240;2183;-72
2021/08/24 05:19:11;;;;;;;;;;;20.60;59.40;;;;;;491327;240;1051;-72
2021/08/24 05:21:13;;;;;;;;;;;20.60;59.30;;;;;;491301;240;1188;-72
2021/08/24 05:23:15;;;;;;;;;;;20.60;59.40;;;;;;491251;240;1059;-72
2021/08/24 05:25:16;;;;;;;;;;;20.60;59.40;;;;;;491310;240;1050;-72
2021/08/24 05:27:17;;;;;;;;;;;20.60;59.50;;;;;;491229;240;1086;-71
2021/08/24 05:29:19;;;;;;;;;;;20.50;59.50;;;;;;491265;240;1324;-71
2021/08/24 05:31:20;;;;;;;;;;;20.60;59.40;;;;;;491240;240;1068;-72
2021/08/24 05:33:21;;;;;;;;;;;20.60;59.40;;;;;;491252;240;1113;-72
2021/08/24 05:35:22;;;;;;;;;;;20.60;59.50;;;;;;491274;240;1167;-72
2021/08/24 05:37:24;;;;;;;;;;;20.50;59.60;;;;;;491344;240;2176;-72
2021/08/24 05:39:25;;;;;;;;;;;20.50;59.50;;;;;;491307;240;1097;-71
2021/08/24 05:41:26;;;;;;;;;;;20.60;59.60;;;;;;491254;240;1051;-72
2021/08/24 05:43:28;;;;;;;;;;;20.50;59.60;;;;;;491253;242;1151;-72
2021/08/24 05:45:29;;;;;;;;;;;20.50;59.60;;;;;;491269;240;1113;-72
2021/08/24 05:47:30;;;;;;;;;;;20.50;59.70;;;;;;491126;240;1078;-72
2021/08/24 05:49:32;;;;;;;;;;;20.50;59.70;;;;;;491140;240;1247;-71
2021/08/24 05:51:33;;;;;;;;;;;20.50;59.70;;;;;;491176;240;1193;-72
2021/08/24 05:53:35;;;;;;;;;;;20.50;59.80;;;;;;491231;240;1044;-72
2021/08/24 05:55:36;;;;;;;;;;;20.50;59.90;;;;;;491177;240;1082;-71
2021/08/24 05:57:37;;;;;;;;;;;20.50;59.90;;;;;;491073;240;2179;-72
2021/08/24 05:59:39;;;;;;;;;;;20.50;59.90;;;;;;491234;240;1046;-72
2021/08/24 06:01:40;;;;;;;;;;;20.50;60.00;;;;;;491248;240;1108;-72
2021/08/24 06:03:42;;;;;;;;;;;20.50;60.00;;;;;;491400;240;1028;-72
2021/08/24 06:05:43;;;;;;;;;;;20.50;60.00;;;;;;491322;240;1302;-72
2021/08/24 06:07:44;;;;;;;;;;;20.50;60.00;;;;;;491118;240;1103;-72
2021/08/24 06:09:46;;;;;;;;;;;20.40;60.00;;;;;;490953;240;1097;-72
2021/08/24 06:11:50;;;;;;;;;;;20.40;60.10;;;;;;491022;240;1147;-72
2021/08/24 06:13:49;;;;;;;;;;;20.40;60.30;;;;;;491091;240;1596;-72
2021/08/24 06:15:50;;;;;;;;;;;20.40;60.20;;;;;;490965;240;2179;-72
2021/08/24 06:17:51;;;;;;;;;;;20.40;60.10;;;;;;491064;240;1032;-72
2021/08/24 06:19:53;;;;;;;;;;;20.40;60.00;;;;;;491110;240;1085;-72
2021/08/24 06:21:54;;;;;;;;;;;20.50;60.00;;;;;;491065;240;1273;-72
2021/08/24 06:23:55;;;;;;;;;;;20.50;60.00;;;;;;491137;240;1127;-72
2021/08/24 06:25:57;;;;;;;;;;;20.40;60.10;;;;;;491043;240;1465;-72
2021/08/24 06:27:58;;;;;;;;;;;20.40;60.20;;;;;;491113;240;1042;-72
2021/08/24 06:29:59;;;;;;;;;;;20.40;60.20;;;;;;491104;240;1022;-72
2021/08/24 06:32:04;;;;;;;;;;;20.40;60.20;;;;;;491000;240;1337;-72
2021/08/24 06:34:02;;;;;;;;;;;20.40;60.30;;;;;;491008;240;1279;-72
2021/08/24 06:36:03;;;;;;;;;;;20.40;60.20;;;;;;491024;240;2188;-72
2021/08/24 06:38:05;;;;;;;;;;;20.40;60.20;;;;;;491110;240;1066;-72
2021/08/24 06:40:06;;;;;;;;;;;20.40;60.30;;;;;;491146;240;1086;-72
2021/08/24 06:42:07;;;;;;;;;;;20.40;60.40;;;;;;491069;240;1420;-72
2021/08/24 06:44:09;;;;;;;;;;;20.40;60.40;;;;;;491033;240;1142;-72
2021/08/24 06:46:10;;;;;;;;;;;20.30;60.40;;;;;;491036;240;1538;-72
2021/08/24 06:48:11;;;;;;;;;;;20.40;60.40;;;;;;491095;240;1037;-72
2021/08/24 06:50:13;;;;;;;;;;;20.40;60.50;;;;;;490348;240;1164;-73
2021/08/24 06:52:14;;;;;;;;;;;20.40;60.30;;;;;;490691;240;1474;-72
2021/08/24 06:54:15;;;;;;;;;;;20.40;60.40;;;;;;490867;240;1206;-72
2021/08/24 06:56:17;;;;;;;;;;;20.40;60.30;;;;;;490980;240;2205;-72
2021/08/24 06:58:19;;;;;;;;;;;20.40;60.50;;;;;;491215;240;814;-72
2021/08/24 07:00:19;;;;;;;;;;;20.40;60.50;;;;;;491541;240;1363;-72
2021/08/24 07:02:21;;;;;;;;;;;20.40;60.40;;;;;;490761;240;1450;-72
2021/08/24 07:04:22;;;;;;;;;;;20.40;60.40;;;;;;491320;240;797;-72
2021/08/24 07:06:23;;;;;;;;;;;20.40;60.50;;;;;;491507;240;1126;-72
2021/08/24 07:08:24;;;;;;;;;;;20.40;60.50;;;;;;491020;240;1003;-72
2021/08/24 07:10:26;;;;;;;;;;;20.30;60.50;;;;;;491099;240;1063;-72
2021/08/24 07:12:27;;;;;;;;;;;20.40;60.50;;;;;;491047;240;1290;-72
2021/08/24 07:14:29;;;;;;;;;;;20.40;60.50;;;;;;490918;240;1153;-72
2021/08/24 07:16:30;;;;;;;;;;;20.40;60.50;;;;;;490850;240;2200;-72
2021/08/24 07:18:31;;;;;;;;;;;20.40;60.60;;;;;;490923;240;1060;-72
2021/08/24 07:20:33;;;;;;;;;;;20.40;60.40;;;;;;490800;240;1203;-72
2021/08/24 07:22:34;;;;;;;;;;;20.40;60.40;;;;;;490688;240;1173;-72
2021/08/24 07:24:35;;;;;;;;;;;20.30;60.40;;;;;;490840;240;1055;-72
2021/08/24 07:26:37;;;;;;;;;;;20.40;60.50;;;;;;490798;240;1161;-72
2021/08/24 07:28:38;;;;;;;;;;;20.40;60.60;;;;;;490667;240;1035;-72
2021/08/24 07:30:39;;;;;;;;;;;20.40;60.50;;;;;;490712;240;1350;-72
2021/08/24 07:32:41;;;;;;;;;;;20.30;60.50;;;;;;490826;240;1125;-72
2021/08/24 07:34:42;;;;;;;;;;;20.30;60.60;;;;;;490856;240;1110;-72
2021/08/24 07:36:43;;;;;;;;;;;20.40;60.60;;;;;;490823;242;2147;-72
2021/08/24 07:38:45;;;;;;;;;;;20.40;60.60;;;;;;490984;240;1070;-72
2021/08/24 07:40:46;;;;;;;;;;;20.30;60.70;;;;;;490967;240;1056;-72
2021/08/24 07:42:47;;;;;;;;;;;20.30;60.80;;;;;;490777;240;1134;-72
2021/08/24 07:44:49;;;;;;;;;;;20.30;60.90;;;;;;490792;240;1062;-72
2021/08/24 07:46:50;;;;;;;;;;;20.30;61.00;;;;;;490717;240;1100;-72
2021/08/24 07:48:52;;;;;;;;;;;20.30;61.00;;;;;;490789;240;1065;-72
2021/08/24 07:50:53;;;;;;;;;;;20.30;60.90;;;;;;490770;240;1035;-72
2021/08/24 07:52:54;;;;;;;;;;;20.30;60.90;;;;;;490791;240;1280;-72
2021/08/24 07:54:56;;;;;;;;;;;20.30;60.90;;;;;;490717;240;1045;-72
2021/08/24 07:56:57;;;;;;;;;;;20.30;61.00;;;;;;490718;240;2195;-72
2021/08/24 07:58:58;;;;;;;;;;;20.30;61.00;;;;;;490519;240;1190;-72
2021/08/24 08:01:00;;;;;;;;;;;20.30;61.00;;;;;;490677;240;1487;-73
2021/08/24 08:03:01;;;;;;;;;;;20.30;61.00;;;;;;490794;240;1081;-73
2021/08/24 08:05:02;;;;;;;;;;;20.30;61.00;;;;;;490724;240;1046;-73
2021/08/24 08:07:04;;;;;;;;;;;20.30;60.90;;;;;;490613;240;1030;-73
2021/08/24 08:09:05;;;;;;;;;;;20.30;60.90;;;;;;490578;240;1057;-72
2021/08/24 08:11:06;;;;;;;;;;;20.30;61.00;;;;;;490697;240;1121;-72
2021/08/24 08:13:08;;;;;;;;;;;20.30;61.00;;;;;;490818;240;1115;-72
2021/08/24 08:15:09;;;;;;;;;;;20.40;60.90;;;;;;490826;240;1092;-72
2021/08/24 08:17:11;;;;;;;;;;;20.30;60.90;;;;;;490610;240;2196;-72
2021/08/24 08:19:12;;;;;;;;;;;20.40;60.90;;;;;;490685;240;1064;-72
2021/08/24 08:21:13;;;;;;;;;;;20.40;60.90;;;;;;490740;240;1663;-72
2021/08/24 08:23:15;;;;;;;;;;;20.40;60.80;;;;;;490748;240;1227;-72
2021/08/24 08:25:16;;;;;;;;;;;20.50;60.70;;;;;;490781;240;1627;-73
2021/08/24 08:27:17;;;;;;;;;;;20.60;60.20;;;;;;490628;240;1304;-73
2021/08/24 08:29:18;;;;;;;;;;;20.80;59.70;;;;;;490675;240;1089;-73
2021/08/24 08:31:20;;;;;;;;;;;20.90;59.30;;;;;;490624;240;1500;-72
2021/08/24 08:33:21;;;;;;;;;;;20.90;59.00;;;;;;490622;240;1076;-72
2021/08/24 08:35:23;;;;;;;;;;;21.00;58.80;;;;;;490665;240;1428;-72
2021/08/24 08:37:24;;;;;;;;;;;21.10;58.70;;;;;;490490;240;2132;-73
2021/08/24 08:39:25;;;;;;;;;;;21.10;58.70;;;;;;490687;240;1259;-72
2021/08/24 08:41:27;;;;;;;;;;;21.10;58.50;;;;;;490651;240;1184;-72
2021/08/24 08:43:28;;;;;;;;;;;21.10;58.50;;;;;;490758;240;1067;-72
2021/08/24 08:45:29;;;;;;;;;;;21.20;58.50;;;;;;490787;240;1079;-72
2021/08/24 08:47:31;;;;;;;;;;;21.10;58.60;;;;;;490851;240;1219;-73
2021/08/24 08:49:32;;;;;;;;;;;21.20;58.50;;;;;;490817;240;1073;-73
2021/08/24 08:51:33;;;;;;;;;;;21.20;58.30;;;;;;490738;240;1102;-72
2021/08/24 08:53:35;;;;;;;;;;;21.20;58.30;;;;;;490787;240;1211;-72
2021/08/24 08:55:36;;;;;;;;;;;21.20;58.30;;;;;;490834;240;1081;-72
2021/08/24 08:57:37;;;;;;;;;;;21.30;58.10;;;;;;490732;240;2129;-72
2021/08/24 08:59:39;;;;;;;;;;;21.30;58.20;;;;;;490840;240;1060;-72
2021/08/24 09:01:40;;;;;;;;;;;21.40;58.10;;;;;;490202;240;1129;-72
2021/08/24 09:03:41;;;;;;;;;;;21.40;58.00;;;;;;490419;240;1038;-72
2021/08/24 09:05:43;;;;;;;;;;;21.30;58.10;;;;;;490592;240;1095;-72
2021/08/24 09:07:44;;;;;;;;;;;21.30;58.20;;;;;;490580;240;1332;-72
2021/08/24 09:09:45;;;;;;;;;;;21.40;58.20;;;;;;490649;240;1041;-73
2021/08/24 09:11:47;;;;;;;;;;;21.40;57.90;;;;;;490497;240;1062;-72
2021/08/24 09:13:48;;;;;;;;;;;21.60;57.40;;;;;;490615;240;1376;-72
2021/08/24 09:15:49;;;;;;;;;;;21.70;57.40;;;;;;490618;240;1080;-72
2021/08/24 09:17:51;;;;;;;;;;;22.40;55.60;;;;;;490388;240;2192;-72
2021/08/24 09:19:52;;;;;;;;;;;22.60;55.10;;;;;;490279;240;1064;-73
2021/08/24 09:21:53;;;;;;;;;;;23.10;53.50;;;;;;490769;240;1064;-73
2021/08/24 09:23:55;;;;;;;;;;;23.10;53.60;;;;;;490772;240;1486;-73
2021/08/24 09:25:56;;;;;;;;;;;22.80;54.00;;;;;;490754;240;1083;-73
2021/08/24 09:27:58;;;;;;;;;;;23.00;53.50;;;;;;490796;240;1153;-73
2021/08/24 09:29:59;;;;;;;;;;;23.30;52.80;;;;;;490819;240;1080;-72
2021/08/24 09:32:00;;;;;;;;;;;23.30;53.20;;;;;;490645;240;1114;-72
2021/08/24 09:34:02;;;;;;;;;;;23.40;53.10;;;;;;490944;240;1130;-72
2021/08/24 09:36:03;;;;;;;;;;;23.60;52.10;;;;;;490857;240;1062;-73
2021/08/24 09:38:04;;;;;;;;;;;23.70;52.20;;;;;;490798;240;2477;-73
2021/08/24 09:40:06;;;;;;;;;;;23.30;53.10;;;;;;490811;240;1099;-73
2021/08/24 09:42:07;;;;;;;;;;;23.30;53.20;;;;;;490963;240;1080;-73
2021/08/24 09:44:09;;;;;;;;;;;23.30;52.90;;;;;;490997;240;1119;-73
2021/08/24 09:46:10;;;;;;;;;;;23.30;53.00;;;;;;490989;240;1070;-73
2021/08/24 09:48:11;;;;;;;;;;;23.70;52.00;;;;;;490982;240;1245;-73
2021/08/24 09:50:13;;;;;;;;;;;23.60;52.20;;;;;;490979;240;1055;-73
2021/08/24 09:52:14;;;;;;;;;;;23.70;52.20;;;;;;490792;240;1305;-73
2021/08/24 09:54:15;;;;;;;;;;;23.80;52.00;;;;;;490873;240;1186;-72
2021/08/24 09:56:17;;;;;;;;;;;23.70;52.20;;;;;;490797;240;1072;-73
2021/08/24 09:58:18;;;;;;;;;;;23.60;52.50;;;;;;490921;240;2183;-72
2021/08/24 10:00:19;;;;;;;;;;;23.30;52.40;;;;;;490374;240;1213;-72
2021/08/24 10:02:21;;;;;;;;;;;23.30;52.50;;;;;;490983;240;1195;-72
2021/08/24 10:04:22;;;;;;;;;;;23.80;52.20;;;;;;491050;240;1048;-73
2021/08/24 10:06:23;;;;;;;;;;;23.70;52.00;;;;;;490979;240;1258;-73
2021/08/24 10:08:25;;;;;;;;;;;23.70;52.20;;;;;;490752;240;1216;-72
2021/08/24 10:10:26;;;;;;;;;;;23.80;51.80;;;;;;490788;240;1062;-72
2021/08/24 10:12:27;;;;;;;;;;;23.80;52.10;;;;;;490894;240;1128;-72
2021/08/24 10:14:28;;;;;;;;;;;23.50;52.50;;;;;;490829;240;1062;-73
2021/08/24 10:16:30;;;;;;;;;;;23.60;52.40;;;;;;490895;240;1211;-72
2021/08/24 10:18:33;;;;;;;;;;;23.90;51.60;;;;;;490945;240;2149;-72
2021/08/24 10:20:32;;;;;;;;;;;23.80;51.80;;;;;;490883;240;1309;-73
2021/08/24 10:22:34;;;;;;;;;;;23.80;52.00;;;;;;490482;240;1839;-73
2021/08/24 10:24:35;;;;;;;;;;;23.90;51.70;;;;;;490898;240;1107;-73
2021/08/24 10:26:36;;;;;;;;;;;23.80;52.00;;;;;;490927;240;1231;-73
2021/08/24 10:28:38;;;;;;;;;;;23.80;52.10;;;;;;490872;240;1056;-72
2021/08/24 10:30:39;;;;;;;;;;;23.80;52.10;;;;;;490879;240;1068;-73
2021/08/24 10:32:40;;;;;;;;;;;23.80;52.20;;;;;;490694;240;1096;-73
2021/08/24 10:34:42;;;;;;;;;;;23.90;51.60;;;;;;490551;240;1060;-73
2021/08/24 10:36:43;;;;;;;;;;;23.80;52.00;;;;;;490587;240;1484;-73
2021/08/24 10:38:45;;;;;;;;;;;23.60;52.30;;;;;;490523;240;2211;-73
2021/08/24 10:40:46;;;;;;;;;;;23.60;52.10;;;;;;490605;240;1045;-73
2021/08/24 10:42:49;;;;;;;;;;;23.90;51.80;;;;;;490537;240;1121;-72
2021/08/24 10:44:48;;;;;;;;;;;23.80;52.20;;;;;;490713;240;1224;-72
2021/08/24 10:46:50;;;;;;;;;;;23.80;52.20;;;;;;490616;240;1178;-72
2021/08/24 10:48:51;;;;;;;;;;;23.90;51.80;;;;;;490669;240;1026;-72
2021/08/24 10:50:52;;;;;;;;;;;24.00;51.60;;;;;;490717;240;1210;-72
2021/08/24 10:52:54;;;;;;;;;;;23.90;51.90;;;;;;490737;240;1297;-72
2021/08/24 10:54:55;;;;;;;;;;;24.40;50.80;;;;;;490761;240;1108;-72
2021/08/24 10:57:00;;;;;;;;;;;23.80;52.20;;;;;;490745;240;1168;-72
2021/08/24 10:58:58;;;;;;;;;;;23.70;52.20;;;;;;490855;240;2184;-72
2021/08/24 11:00:59;;;;;;;;;;;23.40;52.40;;;;;;490821;240;1583;-72
2021/08/24 11:03:00;;;;;;;;;;;23.50;52.50;;;;;;490733;240;1099;-72
2021/08/24 11:05:02;;;;;;;;;;;24.00;51.50;;;;;;490734;240;1082;-73
2021/08/24 11:07:03;;;;;;;;;;;24.10;51.30;;;;;;490596;240;1122;-72
2021/08/24 11:09:04;;;;;;;;;;;23.90;51.60;;;;;;490703;240;1157;-72
2021/08/24 11:11:06;;;;;;;;;;;23.90;51.40;;;;;;490603;240;1112;-72
2021/08/24 11:13:07;;;;;;;;;;;24.20;51.30;;;;;;490962;240;1065;-72
2021/08/24 11:15:08;;;;;;;;;;;24.10;51.30;;;;;;491464;240;825;-72
2021/08/24 11:17:10;;;;;;;;;;;24.30;51.10;;;;;;491282;240;1236;-72
2021/08/24 11:19:11;;;;;;;;;;;24.10;51.00;;;;;;491317;240;2192;-72
2021/08/24 11:21:12;;;;;;;;;;;24.00;51.60;;;;;;490886;240;1038;-72
2021/08/24 11:23:14;;;;;;;;;;;24.10;51.40;;;;;;490987;240;1033;-72
2021/08/24 11:25:15;;;;;;;;;;;24.00;51.60;;;;;;491022;240;1131;-72
2021/08/24 11:27:16;;;;;;;;;;;24.00;51.70;;;;;;490987;240;1138;-72
2021/08/24 11:29:17;;;;;;;;;;;24.40;51.10;;;;;;491350;240;825;-72
2021/08/24 11:31:19;;;;;;;;;;;24.10;51.30;;;;;;491028;240;1076;-73
2021/08/24 11:33:20;;;;;;;;;;;24.00;51.30;;;;;;489974;240;777;-64
2021/08/24 11:35:21;;;;;;;;;;;24.20;51.40;;;;;;490837;240;1413;-66
2021/08/24 11:37:23;;;;;;;;;;;24.50;50.60;;;;;;490590;240;1414;-72
2021/08/24 11:39:24;;;;;;;;;;;24.60;50.20;;;;;;491214;240;2196;-72
2021/08/24 11:41:25;;;;;;;;;;;24.10;51.10;;;;;;490816;240;1459;-72
2021/08/24 11:43:27;;;;;;;;;;;24.10;51.30;;;;;;490875;240;844;-72
2021/08/24 11:45:28;;;;;;;;;;;24.00;51.60;;;;;;490932;240;873;-72
2021/08/24 11:47:30;;;;;;;;;;;23.90;51.80;;;;;;491243;240;980;-73
2021/08/24 11:49:31;;;;;;;;;;;23.90;51.90;;;;;;490950;240;846;-72
2021/08/24 11:51:32;;;;;;;;;;;23.70;51.90;;;;;;491282;240;1497;-73
2021/08/24 11:53:34;;;;;;;;;;;23.90;51.60;;;;;;490834;240;869;-72
2021/08/24 11:55:35;;;;;;;;;;;24.10;51.60;;;;;;491008;240;1100;-72
2021/08/24 11:57:36;;;;;;;;;;;24.20;51.40;;;;;;490810;240;1027;-72